Capitol Logistics 970


EBLG
Liège Airport
Liege, BE
HKJK
Jomo Kenyatta International Airport
Nairobi, KE

Route Details

Aircraft Information
Primary: Boeing 767-300BDSF
Backup: Not Available
Route Data
Distance: 3502nm
Sched. Duration: 7h 20m
Avg. Duration: 8h 10m (+90m)
Times Flown: 5
Recm'd Route: Not Available
Planned Altitude: 35,000ft
Origin Wx: EBLG 291920Z 22015KT 9999 -RADZ FEW009 BKN012 11/10 Q1017 TEMPO BKN008
Dest. Wx:
Notes:

Financial History
Total Freight: 489,076lbs
Average Load: 97,815lbs/flt
Fuel Used: 473,996lbs
Avg. Fuel Used: 94,799lbs/flt
Fuel Expense: $526,136
Avg. Fuel Expense: $105,227
Avg. Fuel Cost: $1.11/lbs
Total Gross Income: $4,802,726
Pilot Pay: $1,045
Total Expenses: $518,954
Total Revenue: $3,748,631
Average Revenue: $960,545.28